Time;durP1;ratioP1;P1;durP2;ratioP2;P2;SDS_P1;SDS_P2;PMS_P1;PMS_P2;Temp;Humidity;BMP_temperature;BMP_pressure;BME280_temperature;BME280_humidity;BME280_pressure;Samples;Min_cycle;Max_cycle;Signal;HPM_P1;HPM_P2
2022/10/14 00:01:06;;;;;;;6.40;4.10;;;;;;;12.99;100.00;98307.38;5015652;28;20233;-71
2022/10/14 00:03:34;;;;;;;5.10;4.10;;;;;;;12.95;100.00;98306.16;5015671;28;20218;-71
2022/10/14 00:06:04;;;;;;;5.10;4.40;;;;;;;12.98;100.00;98307.59;5015728;28;20215;-72
2022/10/14 00:08:30;;;;;;;7.23;4.67;;;;;;;12.92;100.00;98301.25;5015716;28;20195;-72
2022/10/14 00:10:57;;;;;;;6.60;4.50;;;;;;;12.90;100.00;98299.88;5015515;28;20688;-71
2022/10/14 00:13:23;;;;;;;8.77;5.07;;;;;;;12.91;100.00;98296.16;5015442;28;20217;-71
2022/10/14 00:15:49;;;;;;;7.07;4.67;;;;;;;12.88;100.00;98297.41;5015232;28;20221;-72
2022/10/14 00:18:16;;;;;;;7.50;4.83;;;;;;;12.86;100.00;98294.19;5015458;28;20211;-72
2022/10/14 00:20:42;;;;;;;7.87;4.47;;;;;;;12.80;100.00;98295.06;5015730;28;20223;-72
2022/10/14 00:23:08;;;;;;;6.87;4.70;;;;;;;12.80;100.00;98297.72;5015620;28;20218;-72
2022/10/14 00:25:37;;;;;;;7.83;4.60;;;;;;;12.82;100.00;98298.34;5015675;28;20212;-72
2022/10/14 00:28:05;;;;;;;4.67;4.27;;;;;;;12.82;100.00;98298.34;5015295;28;20613;-72
2022/10/14 00:30:32;;;;;;;7.10;4.87;;;;;;;12.80;100.00;98299.59;5015413;28;20240;-72
2022/10/14 00:32:58;;;;;;;4.70;4.20;;;;;;;12.84;100.00;98304.25;5015448;28;20209;-72
2022/10/14 00:35:25;;;;;;;5.60;4.40;;;;;;;12.88;100.00;98305.44;5015406;28;20206;-72
2022/10/14 00:37:51;;;;;;;5.20;4.67;;;;;;;12.82;100.00;98298.34;5015365;28;20298;-72
2022/10/14 00:40:17;;;;;;;5.13;4.63;;;;;;;12.86;100.00;98302.19;5015118;28;20229;-72
2022/10/14 00:42:44;;;;;;;6.13;4.93;;;;;;;12.85;100.00;98300.53;5015693;28;20538;-72
2022/10/14 00:45:19;;;;;;;7.23;5.13;;;;;;;12.87;100.00;98301.13;5015179;28;20583;-71
2022/10/14 00:47:46;;;;;;;7.07;4.30;;;;;;;12.88;100.00;98302.75;5015255;28;20198;-72
2022/10/14 00:50:15;;;;;;;7.37;4.93;;;;;;;12.86;100.00;98302.19;5014970;28;20253;-72
2022/10/14 00:52:42;;;;;;;8.40;5.43;;;;;;;12.88;100.00;98297.41;5015063;28;20591;-72
2022/10/14 00:55:14;;;;;;;7.77;5.17;;;;;;;12.87;100.00;98303.81;5015563;28;20211;-72
2022/10/14 00:57:41;;;;;;;5.47;4.80;;;;;;;12.81;100.00;98304.72;5015160;28;20202;-72
2022/10/14 01:00:14;;;;;;;6.20;4.93;;;;;;;12.82;100.00;98293.00;5015065;28;20229;-72
2022/10/14 01:02:41;;;;;;;6.23;5.27;;;;;;;12.82;100.00;98306.34;5014772;28;20187;-72
2022/10/14 01:05:10;;;;;;;5.87;5.37;;;;;;;12.82;100.00;98297.50;5015043;28;20206;-72
2022/10/14 01:07:45;;;;;;;6.87;6.13;;;;;;;12.80;100.00;98303.06;5014619;28;20289;-72
2022/10/14 01:10:15;;;;;;;9.50;5.13;;;;;;;12.83;100.00;98297.28;5015411;28;20225;-72
2022/10/14 01:12:56;;;;;;;6.10;5.47;;;;;;;12.82;100.00;98294.84;5014847;28;20250;-72
2022/10/14 01:16:03;;;;;;;7.80;5.47;;;;;;;12.84;100.00;98290.91;5014554;28;20214;-72
2022/10/14 01:19:00;;;;;;;9.10;5.13;;;;;;;12.83;100.00;98296.47;5014866;28;20562;-72
2022/10/14 01:21:28;;;;;;;8.73;5.17;;;;;;;12.83;100.00;98293.81;5014612;28;20226;-72
2022/10/14 01:24:32;;;;;;;8.30;5.73;;;;;;;12.84;100.00;98287.44;5013468;28;20213;-72
2022/10/14 01:27:05;;;;;;;7.23;5.37;;;;;;;12.86;100.00;98288.03;5013520;28;20220;-72
2022/10/14 01:29:50;;;;;;;9.30;5.90;;;;;;;12.88;100.00;98281.41;5014452;28;20236;-72
2022/10/14 01:32:23;;;;;;;7.10;5.07;;;;;;;12.93;100.00;98288.75;5014389;28;20272;-72
2022/10/14 01:34:58;;;;;;;8.23;5.13;;;;;;;12.91;100.00;98278.31;5014490;28;20190;-72
2022/10/14 01:37:28;;;;;;;8.03;5.43;;;;;;;12.91;100.00;98280.97;5013802;28;20192;-72
2022/10/14 01:40:00;;;;;;;5.50;5.00;;;;;;;12.95;100.00;98283.97;5013224;28;20230;-72
2022/10/14 01:42:31;;;;;;;7.93;5.20;;;;;;;13.04;100.00;98280.81;5013280;28;20195;-72
2022/10/14 01:45:17;;;;;;;5.53;4.83;;;;;;;13.09;100.00;98280.94;5014370;28;20206;-72
2022/10/14 01:47:44;;;;;;;5.97;5.37;;;;;;;13.10;100.00;98285.22;5014296;28;20214;-72
2022/10/14 01:50:20;;;;;;;7.80;5.40;;;;;;;13.11;100.00;98278.81;5014174;28;20230;-72
2022/10/14 01:53:01;;;;;;;8.10;5.00;;;;;;;13.15;100.00;98277.34;5013716;28;20222;-71
2022/10/14 01:55:33;;;;;;;6.63;5.07;;;;;;;13.10;100.00;98282.56;5014715;28;20315;-72
2022/10/14 01:58:02;;;;;;;6.87;5.47;;;;;;;13.08;100.00;98284.66;5013862;28;20645;-72
2022/10/14 02:00:28;;;;;;;8.73;5.07;;;;;;;13.08;100.00;98284.66;5014828;28;20226;-72
2022/10/14 02:02:54;;;;;;;6.13;4.93;;;;;;;13.08;100.00;98287.31;5013714;28;20210;-72
2022/10/14 02:05:34;;;;;;;8.93;5.43;;;;;;;13.02;100.00;98288.22;5013703;28;20218;-72
2022/10/14 02:08:11;;;;;;;6.77;5.03;;;;;;;13.03;100.00;98283.69;5012867;28;20201;-72
2022/10/14 02:11:16;;;;;;;5.87;5.20;;;;;;;12.97;100.00;98287.28;5013936;28;20252;-72
2022/10/14 02:14:36;;;;;;;6.53;5.00;;;;;;;12.96;100.00;98290.94;5000038;28;20209;-72
2022/10/14 02:17:11;;;;;;;8.73;6.13;;;;;;;12.94;100.00;98287.69;4953236;29;20676;-72
2022/10/14 02:19:45;;;;;;;10.87;5.77;;;;;;;12.94;100.00;98290.38;5003852;28;20209;-72
2022/10/14 02:22:32;;;;;;;8.60;6.10;;;;;;;12.96;100.00;98280.25;5013864;28;20188;-72
2022/10/14 02:25:07;;;;;;;7.90;5.83;;;;;;;12.91;100.00;98280.13;5003184;28;20617;-72
2022/10/14 02:27:35;;;;;;;7.93;5.30;;;;;;;12.86;100.00;98278.19;5012311;28;20563;-72
2022/10/14 02:30:03;;;;;;;8.03;5.17;;;;;;;12.83;100.00;98281.28;5013411;28;20241;-72
2022/10/14 02:32:31;;;;;;;8.50;5.03;;;;;;;12.81;100.00;98278.03;5012170;28;20577;-72
2022/10/14 02:34:59;;;;;;;8.87;5.10;;;;;;;12.75;100.00;98283.47;5013395;28;20700;-72
2022/10/14 02:37:27;;;;;;;5.00;4.33;;;;;;;12.68;100.00;98275.56;5013698;28;20208;-73
2022/10/14 02:39:58;;;;;;;8.53;4.83;;;;;;;12.68;100.00;98275.56;5013264;28;20589;-73
2022/10/14 02:42:26;;;;;;;7.73;4.53;;;;;;;12.65;100.00;98276.00;5013742;28;20557;-73
2022/10/14 02:44:57;;;;;;;5.30;4.40;;;;;;;12.62;100.00;98271.13;5013330;28;20217;-72
2022/10/14 02:47:24;;;;;;;5.57;4.47;;;;;;;12.64;100.00;98271.72;5013582;28;20194;-73
2022/10/14 02:49:51;;;;;;;7.87;4.87;;;;;;;12.62;100.00;98262.31;5013446;28;20234;-73
2022/10/14 02:52:18;;;;;;;8.33;4.30;;;;;;;12.52;100.00;98257.50;5013545;28;20225;-73
2022/10/14 02:54:45;;;;;;;6.87;4.20;;;;;;;12.55;100.00;98253.56;5013573;28;20214;-73
2022/10/14 02:57:11;;;;;;;7.20;4.80;;;;;;;12.53;100.00;98247.66;5013484;28;20210;-73
2022/10/14 02:59:38;;;;;;;9.23;5.00;;;;;;;12.47;100.00;98241.38;5013429;28;20209;-73
2022/10/14 03:02:06;;;;;;;4.97;4.33;;;;;;;12.49;100.00;98236.66;5013436;28;20607;-73
2022/10/14 03:04:32;;;;;;;6.07;3.97;;;;;;;12.50;100.00;98227.59;5013963;28;20217;-73
2022/10/14 03:06:59;;;;;;;6.53;4.33;;;;;;;12.49;100.00;98220.66;5017229;28;20205;-73
2022/10/14 03:09:25;;;;;;;6.43;4.43;;;;;;;12.53;100.00;98224.47;5017074;28;20551;-73
2022/10/14 03:11:51;;;;;;;5.97;4.17;;;;;;;12.50;100.00;98214.28;5016915;28;20233;-73
2022/10/14 03:14:18;;;;;;;6.03;4.27;;;;;;;12.48;100.00;98219.00;5016980;28;20209;-73
2022/10/14 03:16:44;;;;;;;5.30;4.20;;;;;;;12.48;100.00;98216.34;5016862;28;20219;-73
2022/10/14 03:19:10;;;;;;;4.93;4.07;;;;;;;12.48;100.00;98216.34;5016619;28;20225;-73
2022/10/14 03:21:37;;;;;;;7.33;4.33;;;;;;;12.51;100.00;98215.88;5016942;28;20581;-73
2022/10/14 03:24:03;;;;;;;6.60;4.80;;;;;;;12.52;100.00;98212.19;5016818;28;20214;-73
2022/10/14 03:26:29;;;;;;;7.50;4.93;;;;;;;12.49;100.00;98201.16;5016445;28;20218;-73
2022/10/14 03:28:56;;;;;;;5.57;4.27;;;;;;;12.51;100.00;98213.22;5016293;28;20211;-73
2022/10/14 03:31:22;;;;;;;5.67;5.07;;;;;;;12.53;100.00;98205.78;5016196;28;20735;-73
2022/10/14 03:33:48;;;;;;;7.30;4.60;;;;;;;12.53;100.00;98208.47;5016169;28;20221;-73
2022/10/14 03:36:15;;;;;;;6.27;5.20;;;;;;;12.53;100.00;98205.00;5016530;28;20225;-73
2022/10/14 03:38:41;;;;;;;7.47;4.90;;;;;;;12.51;100.00;98199.06;5016565;28;20218;-73
2022/10/14 03:41:07;;;;;;;6.03;4.83;;;;;;;12.45;100.00;98195.47;5016381;28;20226;-73
2022/10/14 03:43:34;;;;;;;8.87;5.20;;;;;;;12.46;100.00;98186.44;5016315;28;20212;-73
2022/10/14 03:46:00;;;;;;;6.93;6.07;;;;;;;12.39;100.00;98195.56;5016304;28;20299;-73
2022/10/14 03:48:27;;;;;;;8.50;5.90;;;;;;;12.43;100.00;98189.53;5015988;28;20213;-73
2022/10/14 03:50:53;;;;;;;8.07;5.73;;;;;;;12.42;100.00;98187.91;5016252;28;20229;-73
2022/10/14 03:53:19;;;;;;;8.53;7.00;;;;;;;12.41;100.00;98183.63;5016208;28;20260;-73
2022/10/14 03:55:46;;;;;;;7.07;6.33;;;;;;;12.41;100.00;98178.31;5016130;28;20206;-73
2022/10/14 03:58:12;;;;;;;10.23;7.37;;;;;;;12.45;100.00;98179.47;5016122;28;20261;-73
2022/10/14 04:00:38;;;;;;;8.57;7.40;;;;;;;12.40;100.00;98170.53;5016030;28;20236;-73
2022/10/14 04:03:05;;;;;;;10.10;7.97;;;;;;;12.42;100.00;98169.25;5015719;28;20206;-73
2022/10/14 04:05:32;;;;;;;8.60;7.30;;;;;;;12.44;100.00;98169.81;5015844;28;20214;-73
2022/10/14 04:08:02;;;;;;;10.93;7.93;;;;;;;12.43;100.00;98170.09;5015713;28;20206;-73
2022/10/14 04:10:29;;;;;;;11.73;7.67;;;;;;;12.42;100.00;98169.25;5015512;28;20230;-73
2022/10/14 04:12:56;;;;;;;9.50;8.40;;;;;;;12.43;100.00;98170.88;5015895;28;20225;-73
2022/10/14 04:15:23;;;;;;;8.60;7.43;;;;;;;12.45;100.00;98167.97;5015189;28;20221;-73
2022/10/14 04:17:49;;;;;;;8.23;7.43;;;;;;;12.41;100.00;98156.97;5015797;28;20572;-73
2022/10/14 04:20:16;;;;;;;11.43;7.27;;;;;;;12.44;100.00;98163.69;5015587;28;20226;-73
2022/10/14 04:22:43;;;;;;;9.57;6.87;;;;;;;12.48;100.00;98147.00;5015661;28;20198;-73
2022/10/14 04:25:10;;;;;;;9.57;7.77;;;;;;;12.45;100.00;98152.81;5015663;28;20214;-73
2022/10/14 04:27:36;;;;;;;9.20;7.40;;;;;;;12.44;100.00;98139.69;5015626;28;20208;-73
2022/10/14 04:30:02;;;;;;;9.20;7.10;;;;;;;12.45;100.00;98147.47;5015556;28;20222;-73
2022/10/14 04:32:29;;;;;;;11.67;8.30;;;;;;;12.46;100.00;98146.44;5015436;28;20238;-73
2022/10/14 04:34:55;;;;;;;10.27;7.80;;;;;;;12.49;100.00;98150.50;5015396;28;20257;-73
2022/10/14 04:37:22;;;;;;;11.70;8.53;;;;;;;12.49;100.00;98156.66;5015347;28;20216;-73
2022/10/14 04:39:48;;;;;;;11.53;9.33;;;;;;;12.47;100.00;98142.72;5015010;28;20246;-73
2022/10/14 04:42:14;;;;;;;15.20;9.47;;;;;;;12.45;100.00;98146.66;5015145;28;20203;-73
2022/10/14 04:44:41;;;;;;;11.67;9.70;;;;;;;12.45;100.00;98142.16;5014815;28;20211;-73
2022/10/14 04:47:07;;;;;;;11.60;9.80;;;;;;;12.49;100.00;98143.31;5014763;28;20213;-72
2022/10/14 04:49:34;;;;;;;11.57;10.23;;;;;;;12.46;100.00;98138.44;5014779;28;20214;-73
2022/10/14 04:52:00;;;;;;;14.60;11.00;;;;;;;12.51;100.00;98138.56;5014490;28;20225;-73
2022/10/14 04:54:26;;;;;;;12.90;11.63;;;;;;;12.52;100.00;98142.06;5014795;28;20210;-72
2022/10/14 04:56:53;;;;;;;16.93;12.37;;;;;;;12.51;100.00;98135.06;5014934;28;20210;-72
2022/10/14 04:59:19;;;;;;;13.67;12.23;;;;;;;12.55;100.00;98131.72;5014925;28;20218;-73
2022/10/14 05:01:45;;;;;;;15.40;11.90;;;;;;;12.51;100.00;98132.41;5014383;28;20233;-72
2022/10/14 05:04:12;;;;;;;13.30;11.90;;;;;;;12.52;100.00;98132.19;5014755;28;20260;-72
2022/10/14 05:06:38;;;;;;;15.33;12.00;;;;;;;12.54;100.00;98126.63;5014417;28;20700;-72
2022/10/14 05:09:06;;;;;;;17.30;12.37;;;;;;;12.54;100.00;98122.09;5014824;28;20207;-72
2022/10/14 05:11:32;;;;;;;16.33;11.80;;;;;;;12.55;100.00;98112.25;5014402;28;20241;-73
2022/10/14 05:14:00;;;;;;;13.43;11.70;;;;;;;12.54;100.00;98111.44;5013930;28;20222;-72
2022/10/14 05:16:26;;;;;;;16.50;11.47;;;;;;;12.54;100.00;98106.09;5014142;28;20222;-72
2022/10/14 05:18:53;;;;;;;13.40;11.97;;;;;;;12.57;100.00;98112.84;5014332;28;20213;-72
2022/10/14 05:21:19;;;;;;;15.47;11.80;;;;;;;12.54;100.00;98110.63;5014203;28;20229;-72
2022/10/14 05:23:46;;;;;;;14.43;12.20;;;;;;;12.54;100.00;98105.28;5014097;28;20296;-72
2022/10/14 05:26:12;;;;;;;15.43;11.90;;;;;;;12.54;100.00;98106.09;5014065;28;20672;-72
2022/10/14 05:28:38;;;;;;;12.17;10.97;;;;;;;12.56;100.00;98104.00;5013413;28;20228;-72
2022/10/14 05:31:06;;;;;;;16.53;11.47;;;;;;;12.56;100.00;98101.34;5014087;28;20230;-72
2022/10/14 05:33:33;;;;;;;14.43;11.47;;;;;;;12.59;100.00;98103.56;5014147;28;20242;-72
2022/10/14 05:35:59;;;;;;;14.77;11.37;;;;;;;12.58;100.00;98093.94;5013609;28;20214;-72
2022/10/14 05:38:26;;;;;;;13.27;10.27;;;;;;;12.58;100.00;98085.94;5014067;28;20232;-72
2022/10/14 05:40:57;;;;;;;13.57;11.23;;;;;;;12.63;100.00;98085.22;5013798;28;20668;-72
2022/10/14 05:43:24;;;;;;;13.43;10.37;;;;;;;12.63;100.00;98086.06;5014161;28;20193;-72
2022/10/14 05:45:51;;;;;;;13.27;10.50;;;;;;;12.64;100.00;98082.34;5014032;28;20209;-72
2022/10/14 05:48:18;;;;;;;15.23;11.73;;;;;;;12.64;100.00;98087.69;5013559;28;20218;-72
2022/10/14 05:50:44;;;;;;;12.50;10.97;;;;;;;12.59;100.00;98090.22;5013097;28;20222;-72
2022/10/14 05:53:12;;;;;;;17.03;11.80;;;;;;;12.60;100.00;98086.50;5013371;28;20226;-71
2022/10/14 05:55:40;;;;;;;15.40;11.50;;;;;;;12.62;100.00;98081.75;5012470;28;20213;-71
2022/10/14 05:58:06;;;;;;;12.13;10.87;;;;;;;12.63;100.00;98094.06;5012732;28;20635;-72
2022/10/14 06:00:33;;;;;;;15.13;11.73;;;;;;;12.65;100.00;98085.81;5013545;28;20230;-71
2022/10/14 06:02:59;;;;;;;15.10;11.07;;;;;;;12.70;100.00;98097.41;5013881;28;20203;-72
2022/10/14 06:05:26;;;;;;;12.97;11.43;;;;;;;12.71;100.00;98090.22;5013800;28;20209;-71
2022/10/14 06:07:52;;;;;;;16.40;11.67;;;;;;;12.71;100.00;98087.56;5013370;28;20693;-72
2022/10/14 06:10:19;;;;;;;12.30;10.83;;;;;;;12.70;100.00;98086.75;5013684;28;20230;-71
2022/10/14 06:12:45;;;;;;;18.40;11.47;;;;;;;12.74;100.00;98081.75;5013924;28;20229;-71
2022/10/14 06:15:11;;;;;;;14.63;11.53;;;;;;;12.75;100.00;98080.72;5013268;28;20689;-71
2022/10/14 06:17:38;;;;;;;13.60;11.50;;;;;;;12.76;100.00;98080.50;5013575;28;20213;-72
2022/10/14 06:20:04;;;;;;;14.30;11.00;;;;;;;12.74;100.00;98087.91;5013374;28;20230;-71
2022/10/14 06:22:31;;;;;;;13.93;10.73;;;;;;;12.79;100.00;98089.91;5013310;28;20575;-71
2022/10/14 06:24:57;;;;;;;12.70;11.23;;;;;;;12.77;100.00;98095.47;5013455;28;20210;-72
2022/10/14 06:27:23;;;;;;;12.37;11.13;;;;;;;12.73;100.00;98096.13;5013427;28;20214;-71
2022/10/14 06:29:50;;;;;;;16.47;11.03;;;;;;;12.78;100.00;98094.41;5013151;28;20226;-71
2022/10/14 06:32:16;;;;;;;13.87;11.40;;;;;;;12.79;100.00;98096.03;5013220;28;20253;-72
2022/10/14 06:34:42;;;;;;;16.33;11.57;;;;;;;12.80;100.00;98092.31;5013464;28;20214;-75
2022/10/14 06:37:09;;;;;;;15.07;11.67;;;;;;;12.86;100.00;98094.06;5013134;28;20207;-71
2022/10/14 06:39:36;;;;;;;15.37;11.53;;;;;;;12.85;100.00;98084.41;5015364;28;20211;-72
2022/10/14 06:42:02;;;;;;;13.23;11.23;;;;;;;12.87;100.00;98086.84;5017354;28;20221;-72
2022/10/14 06:44:29;;;;;;;12.27;10.80;;;;;;;12.87;100.00;98093.00;5017302;28;20202;-72
2022/10/14 06:46:55;;;;;;;14.40;11.20;;;;;;;12.92;100.00;98086.97;5017320;28;20218;-72
2022/10/14 06:49:22;;;;;;;14.23;10.67;;;;;;;12.95;100.00;98089.19;5017331;28;20375;-72
2022/10/14 06:51:48;;;;;;;11.50;10.27;;;;;;;13.02;100.00;98090.72;5016890;28;20233;-72
2022/10/14 06:54:14;;;;;;;12.77;10.13;;;;;;;13.00;100.00;98086.66;5016914;28;20234;-72
2022/10/14 06:56:41;;;;;;;12.40;10.63;;;;;;;13.03;100.00;98089.66;5016894;28;20665;-72
2022/10/14 06:59:07;;;;;;;13.60;10.43;;;;;;;13.10;100.00;98086.88;5016736;28;20696;-72
2022/10/14 07:01:33;;;;;;;13.77;10.73;;;;;;;13.10;100.00;98086.88;5016660;28;20720;-72
2022/10/14 07:04:00;;;;;;;15.70;10.50;;;;;;;13.16;100.00;98088.63;5016779;28;20573;-71
2022/10/14 07:06:26;;;;;;;14.40;10.63;;;;;;;13.21;100.00;98094.06;5016957;28;20211;-72
2022/10/14 07:08:53;;;;;;;16.23;11.23;;;;;;;13.22;100.00;98080.50;5017038;28;20249;-72
2022/10/14 07:11:19;;;;;;;12.90;11.00;;;;;;;13.16;100.00;98081.41;5016759;28;20230;-72
2022/10/14 07:13:45;;;;;;;12.50;10.07;;;;;;;13.17;100.00;98083.06;5016514;28;20226;-71
2022/10/14 07:16:12;;;;;;;13.33;10.50;;;;;;;13.18;100.00;98082.00;5016391;28;20292;-72
2022/10/14 07:18:38;;;;;;;12.17;10.90;;;;;;;13.17;100.00;98077.72;5016429;28;20223;-72
2022/10/14 07:21:05;;;;;;;12.43;11.13;;;;;;;13.17;100.00;98079.56;5016651;28;20242;-72
2022/10/14 07:23:32;;;;;;;14.13;10.73;;;;;;;13.12;100.00;98082.91;5016299;28;20677;-72
2022/10/14 07:26:00;;;;;;;13.97;10.90;;;;;;;13.12;100.00;98085.59;5016628;28;20206;-71
2022/10/14 07:28:27;;;;;;;13.00;10.90;;;;;;;13.16;100.00;98096.63;5016375;28;20208;-71
2022/10/14 07:31:05;;;;;;;12.87;10.03;;;;;;;13.16;100.00;98092.09;5016302;28;20252;-72
2022/10/14 07:33:31;;;;;;;13.70;10.93;;;;;;;13.19;100.00;98090.81;5016574;28;20210;-72
2022/10/14 07:36:03;;;;;;;11.07;9.93;;;;;;;13.28;100.00;98095.56;5016193;28;20214;-71
2022/10/14 07:38:30;;;;;;;14.03;11.53;;;;;;;13.30;100.00;98087.31;5017065;28;20203;-72
2022/10/14 07:41:02;;;;;;;13.20;10.53;;;;;;;13.34;100.00;98094.63;5016141;28;20317;-71
2022/10/14 07:43:29;;;;;;;11.60;10.40;;;;;;;13.43;100.00;98087.88;5015852;28;20704;-71
2022/10/14 07:45:59;;;;;;;13.10;10.70;;;;;;;13.43;100.00;98087.88;5016029;28;20211;-71
2022/10/14 07:48:28;;;;;;;13.40;10.63;;;;;;;13.43;100.00;98100.41;5015942;28;20213;-71
2022/10/14 07:50:54;;;;;;;13.27;10.87;;;;;;;13.46;100.00;98097.25;5014931;28;20234;-72
2022/10/14 07:53:21;;;;;;;11.87;10.60;;;;;;;13.54;100.00;98102.25;5016139;28;20227;-71
2022/10/14 07:55:51;;;;;;;11.10;9.83;;;;;;;13.60;100.00;98104.78;5015950;28;20250;-72
2022/10/14 07:58:26;;;;;;;10.90;9.80;;;;;;;13.67;100.00;98100.13;5015861;28;20238;-71
2022/10/14 08:00:53;;;;;;;12.67;10.00;;;;;;;13.63;100.00;98093.63;5015971;28;20322;-72
2022/10/14 08:03:20;;;;;;;11.50;10.20;;;;;;;13.57;100.00;98096.44;5015829;28;20228;-72
2022/10/14 08:05:49;;;;;;;11.77;9.93;;;;;;;13.63;100.00;98096.31;5015903;28;20202;-72
2022/10/14 08:08:15;;;;;;;13.73;9.57;;;;;;;13.69;100.00;98086.50;5015560;28;20563;-71
2022/10/14 08:10:42;;;;;;;14.13;10.03;;;;;;;13.83;100.00;98082.53;5016115;28;20226;-71
2022/10/14 08:13:08;;;;;;;13.83;9.40;;;;;;;13.76;100.00;98089.88;5015708;28;20222;-72
2022/10/14 08:15:37;;;;;;;11.93;9.77;;;;;;;13.78;100.00;98088.56;5016059;28;20215;-72
2022/10/14 08:18:09;;;;;;;12.73;9.20;;;;;;;13.78;100.00;98085.06;5015752;28;20214;-71
2022/10/14 08:20:35;;;;;;;11.50;9.63;;;;;;;13.78;100.00;98083.22;5015300;28;20638;-71
2022/10/14 08:23:02;;;;;;;12.00;8.90;;;;;;;13.79;100.00;98090.19;5015647;28;20206;-71
2022/10/14 08:25:29;;;;;;;11.27;8.80;;;;;;;13.85;100.00;98081.25;5016148;28;20217;-72
2022/10/14 08:27:57;;;;;;;10.27;8.23;;;;;;;13.84;100.00;98079.59;5015266;28;20212;-72
2022/10/14 08:30:24;;;;;;;10.37;9.20;;;;;;;13.87;100.00;98072.97;5015335;28;20230;-72
2022/10/14 08:32:50;;;;;;;13.87;9.27;;;;;;;13.88;100.00;98075.41;5015017;28;20214;-72
2022/10/14 08:35:16;;;;;;;13.90;9.10;;;;;;;13.93;100.00;98067.47;5015713;28;20222;-71
2022/10/14 08:37:43;;;;;;;11.70;8.90;;;;;;;13.95;100.00;98073.41;5015292;28;20581;-71
2022/10/14 08:40:15;;;;;;;10.33;9.23;;;;;;;14.04;100.00;98069.28;5015531;28;20226;-72
2022/10/14 08:42:54;;;;;;;11.83;8.57;;;;;;;14.13;100.00;98062.50;5015318;28;20627;-72
2022/10/14 08:45:37;;;;;;;13.13;8.83;;;;;;;14.17;100.00;98062.81;5014970;28;20198;-72
2022/10/14 08:48:18;;;;;;;15.67;9.83;;;;;;;14.18;100.00;98059.91;5014968;28;20591;-72
2022/10/14 08:50:50;;;;;;;16.00;9.73;;;;;;;14.25;100.00;98065.94;5015110;28;20223;-72
2022/10/14 08:53:28;;;;;;;12.63;9.60;;;;;;;14.44;100.00;98067.34;5015028;28;20210;-72
2022/10/14 08:55:59;;;;;;;11.83;9.73;;;;;;;14.64;100.00;98062.31;5014852;28;20202;-72
2022/10/14 08:58:38;;;;;;;11.93;8.47;;;;;;;14.67;100.00;98058.34;5014857;28;20191;-72
2022/10/14 09:01:15;;;;;;;11.97;7.43;;;;;;;14.83;100.00;98068.22;5013819;28;20227;-72
2022/10/14 09:03:42;;;;;;;9.90;8.07;;;;;;;14.84;100.00;98067.16;5013901;28;20553;-72
2022/10/14 09:06:19;;;;;;;8.83;6.47;;;;;;;14.74;100.00;98069.69;5014772;28;20208;-72
2022/10/14 09:08:48;;;;;;;10.73;6.03;;;;;;;14.79;100.00;98061.72;5013637;28;20186;-71
2022/10/14 09:11:18;;;;;;;8.60;5.13;;;;;;;14.90;100.00;98061.63;5014507;28;20227;-71
2022/10/14 09:13:57;;;;;;;8.20;5.20;;;;;;;14.93;100.00;98057.66;5014012;28;20211;-71
2022/10/14 09:16:31;;;;;;;6.53;4.47;;;;;;;14.95;100.00;98066.25;5014182;28;20215;-72
2022/10/14 09:19:00;;;;;;;7.60;4.67;;;;;;;15.00;100.00;98064.44;5013302;28;20195;-72
2022/10/14 09:21:32;;;;;;;8.63;4.87;;;;;;;14.97;100.00;98064.94;5014737;28;20578;-72
2022/10/14 09:24:06;;;;;;;6.43;4.10;;;;;;;14.92;100.00;98058.72;5014188;28;20202;-72
2022/10/14 09:26:42;;;;;;;6.70;4.03;;;;;;;14.96;100.00;98057.97;5014474;28;20199;-72
2022/10/14 09:29:23;;;;;;;5.23;3.83;;;;;;;14.92;100.00;98062.19;5014149;28;20264;-72
2022/10/14 09:31:50;;;;;;;5.70;3.40;;;;;;;14.93;100.00;98061.13;5012524;28;20736;-72
2022/10/14 09:34:28;;;;;;;5.43;3.60;;;;;;;14.85;100.00;98058.06;5014134;28;20242;-72
2022/10/14 09:36:56;;;;;;;6.30;3.70;;;;;;;14.95;100.00;98056.34;5013644;28;20201;-72
2022/10/14 09:39:22;;;;;;;6.40;4.37;;;;;;;14.91;100.00;98049.88;5014250;28;20207;-72
2022/10/14 09:41:52;;;;;;;8.53;4.30;;;;;;;14.91;100.00;98052.53;5014113;28;20222;-72
2022/10/14 09:44:24;;;;;;;5.73;3.90;;;;;;;14.99;100.00;98054.81;5013928;28;20202;-72
2022/10/14 09:46:59;;;;;;;5.30;4.60;;;;;;;14.99;100.00;98044.09;5014169;28;20213;-72
2022/10/14 09:49:42;;;;;;;8.50;5.40;;;;;;;15.04;100.00;98048.69;5012885;28;20213;-72
2022/10/14 09:52:21;;;;;;;13.37;5.13;;;;;;;15.14;100.00;98036.25;5012453;28;20650;-72
2022/10/14 09:54:54;;;;;;;6.23;5.33;;;;;;;15.20;100.00;98039.81;5013871;28;20218;-72
2022/10/14 09:57:21;;;;;;;9.20;5.40;;;;;;;15.33;100.00;98034.88;5014048;28;20191;-72
2022/10/14 09:59:53;;;;;;;9.43;5.20;;;;;;;15.39;100.00;98031.25;5013829;28;20602;-72
2022/10/14 10:02:32;;;;;;;5.73;5.13;;;;;;;15.48;100.00;98028.94;5014267;28;20197;-72
2022/10/14 10:05:12;;;;;;;7.63;5.03;;;;;;;15.58;100.00;98031.72;5012456;28;20241;-72
2022/10/14 10:07:38;;;;;;;7.23;5.03;;;;;;;15.86;100.00;98026.13;5013826;28;20604;-72
2022/10/14 10:10:25;;;;;;;7.43;4.77;;;;;;;16.02;100.00;98026.03;5013725;28;20230;-72
2022/10/14 10:12:51;;;;;;;7.70;4.73;;;;;;;16.12;100.00;98031.50;5013747;28;20201;-72
2022/10/14 10:15:21;;;;;;;5.33;4.30;;;;;;;16.28;100.00;98024.41;5012983;28;20233;-72
2022/10/14 10:17:48;;;;;;;8.53;4.97;;;;;;;16.12;100.00;98015.41;5013376;28;20210;-72
2022/10/14 10:20:15;;;;;;;6.93;4.37;;;;;;;16.17;100.00;98015.47;5013357;28;20261;-72
2022/10/14 10:22:42;;;;;;;6.73;4.13;;;;;;;16.11;100.00;98021.81;5014148;28;20214;-72
2022/10/14 10:25:08;;;;;;;5.77;4.30;;;;;;;16.39;100.00;98015.34;5013662;28;20206;-72
2022/10/14 10:27:44;;;;;;;8.57;4.70;;;;;;;16.16;100.00;98010.34;5013290;28;20636;-72
2022/10/14 10:30:37;;;;;;;8.37;4.60;;;;;;;16.21;100.00;98008.53;5013417;28;20230;-73
2022/10/14 10:33:20;;;;;;;5.93;4.80;;;;;;;16.11;100.00;98008.41;5013397;28;20191;-72
2022/10/14 10:36:31;;;;;;;9.47;5.23;;;;;;;16.08;100.00;97998.22;5012683;28;20700;-71
2022/10/14 10:39:01;;;;;;;7.10;4.60;;;;;;;16.20;100.00;97996.16;4991258;28;20214;-70
2022/10/14 10:42:02;;;;;;;7.40;4.20;;;;;;;16.25;100.00;97993.53;5009410;28;20233;-70
2022/10/14 10:44:42;;;;;;;7.80;4.40;;;;;;;16.31;100.00;97986.31;5011730;28;20212;-70
2022/10/14 10:47:27;;;;;;;8.10;5.07;;;;;;;16.41;100.00;97981.88;5013278;28;20198;-72
2022/10/14 10:50:11;;;;;;;6.90;5.23;;;;;;;16.34;100.00;97973.22;5013362;28;20588;-71
2022/10/14 10:53:02;;;;;;;7.73;5.03;;;;;;;16.41;100.00;97964.94;5013285;28;20201;-71
2022/10/14 10:56:12;;;;;;;6.40;5.30;;;;;;;16.41;100.00;97971.13;5012487;28;20265;-71
2022/10/14 10:59:00;;;;;;;5.60;5.07;;;;;;;16.41;100.00;97960.41;4991094;28;20213;-71
2022/10/14 11:01:41;;;;;;;5.97;3.27;;;;;;;16.50;100.00;97966.09;5012325;28;20705;-71
2022/10/14 11:04:29;;;;;;;4.87;3.00;;;;;;;16.50;100.00;97961.53;5012530;28;20680;-73
2022/10/14 11:13:30;;;;;;;5.10;2.90;;;;;;;16.42;100.00;97955.84;5012931;28;20182;-71
2022/10/14 11:16:02;;;;;;;3.30;2.43;;;;;;;16.38;100.00;97949.34;5012629;28;20211;-71
2022/10/14 11:18:59;;;;;;;2.83;2.63;;;;;;;16.29;100.00;97951.69;5011841;28;20195;-72
2022/10/14 11:21:48;;;;;;;7.87;2.87;;;;;;;16.24;100.00;97957.03;5012641;28;20313;-71
2022/10/14 11:24:33;;;;;;;4.80;3.13;;;;;;;16.06;100.00;97965.47;5012451;28;20194;-71
2022/10/14 11:27:38;;;;;;;4.97;3.47;;;;;;;15.88;100.00;97957.00;5014512;28;20191;-71
2022/10/14 11:30:24;;;;;;;5.93;3.50;;;;;;;15.64;100.00;97951.13;5015399;28;20237;-71
2022/10/14 11:33:31;;;;;;;4.00;3.13;;;;;;;15.63;100.00;97940.66;5016489;28;20191;-71
2022/10/14 11:36:04;;;;;;;5.13;3.90;;;;;;;15.57;100.00;97937.16;5016411;28;20190;-71
2022/10/14 11:38:47;;;;;;;4.10;3.57;;;;;;;15.62;100.00;97944.41;5015187;28;20199;-71
2022/10/14 11:41:47;;;;;;;8.63;3.90;;;;;;;15.67;100.00;97937.25;5016866;28;20249;-72
2022/10/14 11:44:43;;;;;;;5.20;3.60;;;;;;;15.66;100.00;97932.13;4998416;28;20202;-71